Terminal Aerodrome Forecast
Issued by NWS Pueblo, CO

Home | Current Version | Previous Version | Text Only | Print | Product List | Glossary On
Versions: 1 2 3 4 5 6 7 8 9 10 11 12 13 14 15 16 17 18 19 20 21 22 23 24 25
000
FTUS45 KPUB 211721
TAFPUB
TAF
KPUB 211721Z 2118/2218 29028G38KT P6SM SCT200
     FM211900 29020G30KT P6SM SCT200
     FM212000 27015G25KT P6SM SCT200
     FM212200 26014KT P6SM SCT200
     FM220100 25012KT P6SM BKN200
     FM220700 28015G25KT P6SM SCT200
     FM221400 26014KT P6SM SCT200=

USA.gov is the U.S. government's official web portal to all federal, state and local government web resources and services.